createdAt,value
2022-08-23T00:03:04.038Z,13.75
2022-08-23T00:06:10.714Z,13.93
2022-08-23T00:09:15.421Z,14.12
2022-08-23T00:12:23.572Z,13.89
2022-08-23T00:15:28.233Z,13.97
2022-08-23T00:18:32.990Z,13.86
2022-08-23T00:21:39.631Z,13.84
2022-08-23T00:24:44.584Z,13.88
2022-08-23T00:27:49.179Z,13.94
2022-08-23T00:30:54.221Z,14.03
2022-08-23T00:33:58.800Z,14.12
2022-08-23T00:37:04.152Z,14.14
2022-08-23T00:40:12.071Z,14.17
2022-08-23T00:43:49.388Z,14.07
2022-08-23T00:47:15.746Z,14.10
2022-08-23T00:50:29.610Z,14.01
2022-08-23T00:53:38.600Z,14.04
2022-08-23T00:56:44.264Z,13.83
2022-08-23T00:59:48.633Z,13.81
2022-08-23T01:02:54.817Z,13.79
2022-08-23T01:06:17.819Z,14.15
2022-08-23T01:09:23.591Z,14.13
2022-08-23T01:12:37.390Z,13.86
2022-08-23T01:15:49.684Z,14.04
2022-08-23T01:18:56.887Z,14.01
2022-08-23T01:22:13.959Z,14.10
2022-08-23T01:25:22.706Z,14.22
2022-08-23T01:28:27.514Z,14.37
2022-08-23T01:31:32.715Z,14.42
2022-08-23T01:34:38.249Z,14.47
2022-08-23T01:37:50.264Z,14.39
2022-08-23T01:40:55.089Z,14.54
2022-08-23T01:43:59.993Z,14.34
2022-08-23T01:47:07.040Z,14.31
2022-08-23T01:50:13.852Z,14.52
2022-08-23T01:53:18.561Z,14.60
2022-08-23T01:56:39.109Z,14.60
2022-08-23T01:59:46.432Z,14.69
2022-08-23T02:02:51.306Z,14.66
2022-08-23T02:05:56.248Z,14.72
2022-08-23T02:09:04.635Z,14.59
2022-08-23T02:12:13.541Z,14.50
2022-08-23T02:15:18.898Z,14.56
2022-08-23T02:18:24.622Z,14.58
2022-08-23T02:21:34.031Z,14.60
2022-08-23T02:24:45.675Z,14.49
2022-08-23T02:27:50.567Z,14.46
2022-08-23T02:30:55.410Z,14.35
2022-08-23T02:34:01.399Z,14.40
2022-08-23T02:37:10.341Z,14.48
2022-08-23T02:40:15.005Z,14.54
2022-08-23T02:43:19.701Z,14.53
2022-08-23T02:46:25.463Z,14.55
2022-08-23T02:49:31.875Z,14.54
2022-08-23T02:52:37.424Z,14.55
2022-08-23T02:55:41.581Z,14.54
2022-08-23T02:58:54.469Z,14.42
2022-08-23T03:02:01.035Z,14.44
2022-08-23T03:05:13.810Z,14.69
2022-08-23T03:08:19.760Z,14.62
2022-08-23T03:11:26.557Z,14.53
2022-08-23T03:14:31.266Z,14.60
2022-08-23T03:17:37.007Z,14.65
2022-08-23T03:20:45.650Z,14.56
2022-08-23T03:23:51.722Z,14.17
2022-08-23T03:26:56.794Z,14.55
2022-08-23T03:30:01.456Z,14.66
2022-08-23T03:33:08.034Z,14.69
2022-08-23T03:36:14.192Z,14.83
2022-08-23T03:39:19.021Z,14.99
2022-08-23T03:42:24.136Z,15.13
2022-08-23T03:45:35.916Z,15.24
2022-08-23T03:48:40.603Z,15.44
2022-08-23T03:51:45.324Z,15.67
2022-08-23T03:54:51.221Z,15.76
2022-08-23T03:57:56.269Z,15.54
2022-08-23T04:01:00.825Z,15.66
2022-08-23T04:04:06.163Z,15.68
2022-08-23T04:07:21.550Z,15.55
2022-08-23T04:10:30.186Z,15.59
2022-08-23T04:13:36.997Z,15.69
2022-08-23T04:16:42.692Z,15.61
2022-08-23T04:25:58.752Z,15.43
2022-08-23T04:29:04.050Z,15.40
2022-08-23T04:32:12.822Z,15.44
2022-08-23T04:35:18.411Z,15.32
2022-08-23T04:38:25.028Z,15.36
2022-08-23T04:41:54.897Z,15.36
2022-08-23T04:45:00.158Z,15.22
2022-08-23T04:48:06.496Z,15.30
2022-08-23T04:51:18.786Z,15.33
2022-08-23T04:54:24.215Z,15.18
2022-08-23T04:57:52.331Z,15.10
2022-08-23T05:01:05.746Z,15.15
2022-08-23T05:04:11.580Z,15.28
2022-08-23T05:07:17.624Z,15.16
2022-08-23T05:10:22.580Z,15.24
2022-08-23T05:13:31.188Z,15.25
2022-08-23T05:16:41.563Z,14.97
2022-08-23T05:19:47.390Z,14.93
2022-08-23T05:22:52.973Z,14.90
2022-08-23T05:26:03.369Z,14.87
2022-08-23T05:29:14.666Z,14.92
2022-08-23T05:32:23.875Z,15.00
2022-08-23T05:35:28.420Z,14.88
2022-08-23T05:38:33.731Z,15.02
2022-08-23T05:41:39.211Z,15.02
2022-08-23T05:44:48.435Z,14.96
2022-08-23T05:47:55.770Z,14.97
2022-08-23T05:51:15.879Z,14.93
2022-08-23T05:54:21.250Z,15.13
2022-08-23T05:57:41.515Z,15.01
2022-08-23T06:00:46.349Z,15.00
2022-08-23T06:03:52.257Z,14.99
2022-08-23T06:06:59.644Z,15.11
2022-08-23T06:10:06.409Z,15.07
2022-08-23T06:13:11.265Z,15.14
2022-08-23T06:16:17.617Z,14.94
2022-08-23T06:19:23.687Z,15.17
2022-08-23T06:22:48.040Z,15.13
2022-08-23T06:25:52.644Z,15.20
2022-08-23T06:29:03.395Z,15.24
2022-08-23T06:32:09.191Z,15.24
2022-08-23T06:35:37.594Z,15.34
2022-08-23T06:38:58.057Z,15.29
2022-08-23T06:42:41.748Z,15.33
2022-08-23T06:45:50.202Z,15.40
2022-08-23T06:49:01.642Z,15.41
2022-08-23T06:52:06.598Z,15.38
2022-08-23T06:55:34.365Z,15.41
2022-08-23T06:58:54.919Z,15.44
2022-08-23T07:02:11.318Z,15.38
2022-08-23T07:05:33.963Z,15.33
2022-08-23T07:09:05.792Z,15.44
2022-08-23T07:12:11.821Z,15.39
2022-08-23T07:15:19.871Z,15.40
2022-08-23T07:18:24.510Z,15.43
2022-08-23T07:21:29.425Z,15.48
2022-08-23T07:24:34.777Z,15.49
2022-08-23T07:27:40.647Z,15.57
2022-08-23T07:30:46.553Z,15.59
2022-08-23T07:33:52.729Z,15.66
2022-08-23T07:36:59.282Z,15.49
2022-08-23T07:40:04.262Z,15.56
2022-08-23T07:43:10.408Z,15.50
2022-08-23T07:46:15.544Z,15.51
2022-08-23T07:49:21.510Z,15.58
2022-08-23T07:52:27.415Z,15.56
2022-08-23T07:55:32.316Z,15.33
2022-08-23T07:58:50.976Z,15.41
2022-08-23T08:02:12.711Z,15.38
2022-08-23T08:05:21.463Z,15.29
2022-08-23T08:08:27.852Z,15.30
2022-08-23T08:11:35.470Z,15.27
2022-08-23T08:14:43.184Z,15.25
2022-08-23T08:17:51.677Z,15.28
2022-08-23T08:20:56.347Z,15.18
2022-08-23T08:24:23.767Z,15.17
2022-08-23T08:27:33.990Z,15.14
2022-08-23T08:30:40.709Z,15.17
2022-08-23T08:33:45.529Z,15.12
2022-08-23T08:36:55.442Z,15.14
2022-08-23T08:40:02.907Z,15.05
2022-08-23T08:43:32.103Z,15.28
2022-08-23T08:46:48.863Z,15.26
2022-08-23T08:50:09.820Z,15.22
2022-08-23T08:53:38.964Z,15.33
2022-08-23T08:56:54.943Z,15.33
2022-08-23T09:00:15.707Z,15.41
2022-08-23T09:03:22.798Z,15.53
2022-08-23T09:07:22.590Z,15.46
2022-08-23T09:10:41.132Z,15.56
2022-08-23T09:13:47.278Z,15.44
2022-08-23T09:17:05.550Z,15.50
2022-08-23T09:20:11.752Z,15.51
2022-08-23T09:23:26.268Z,15.48
2022-08-23T09:26:33.971Z,15.36
2022-08-23T09:29:41.478Z,15.47
2022-08-23T09:32:47.916Z,15.53
2022-08-23T09:36:29.552Z,15.51
2022-08-23T09:39:40.321Z,15.45
2022-08-23T09:43:05.702Z,15.27
2022-08-23T09:46:11.235Z,14.94
2022-08-23T09:49:31.736Z,15.01
2022-08-23T09:52:50.101Z,15.01
2022-08-23T09:55:58.840Z,14.97
2022-08-23T09:59:03.768Z,14.87
2022-08-23T10:02:27.511Z,14.80
2022-08-23T10:05:42.106Z,14.88
2022-08-23T10:08:56.999Z,14.87
2022-08-23T10:12:04.564Z,14.84
2022-08-23T10:15:12.805Z,14.86
2022-08-23T10:18:27.238Z,14.83
2022-08-23T10:21:48.138Z,14.94
2022-08-23T10:25:05.523Z,14.80
2022-08-23T10:28:42.911Z,14.96
2022-08-23T10:31:59.745Z,14.97
2022-08-23T10:35:30.203Z,14.99
2022-08-23T10:38:46.520Z,14.97
2022-08-23T10:42:12.506Z,14.99
2022-08-23T10:45:27.518Z,14.95
2022-08-23T10:49:01.554Z,14.87
2022-08-23T10:52:12.184Z,14.98
2022-08-23T10:55:36.890Z,14.94
2022-08-23T10:58:47.929Z,14.91
2022-08-23T11:02:18.051Z,15.04
2022-08-23T11:05:31.976Z,14.86
2022-08-23T11:08:47.946Z,15.07
2022-08-23T11:12:20.643Z,15.04
2022-08-23T11:15:35.495Z,14.98
2022-08-23T11:18:51.431Z,15.00
2022-08-23T11:22:55.277Z,14.95
2022-08-23T11:26:00.504Z,14.89
2022-08-23T11:29:08.342Z,15.02
2022-08-23T11:32:29.982Z,14.99
2022-08-23T11:35:54.081Z,14.96
2022-08-23T11:39:07.696Z,14.97
2022-08-23T11:42:12.831Z,14.96
2022-08-23T11:45:42.660Z,14.96
2022-08-23T11:48:57.020Z,14.96
2022-08-23T11:52:13.390Z,14.99
2022-08-23T11:55:24.401Z,14.97
2022-08-23T11:58:43.729Z,14.92
2022-08-23T12:01:48.512Z,14.91
2022-08-23T12:04:56.347Z,14.87
2022-08-23T12:08:06.890Z,14.92
2022-08-23T12:11:12.503Z,14.83
2022-08-23T12:14:34.292Z,14.85
2022-08-23T12:17:42.656Z,14.77
2022-08-23T12:20:49.234Z,14.63
2022-08-23T12:24:01.310Z,14.48
2022-08-23T12:27:31.011Z,14.36
2022-08-23T12:31:07.816Z,14.38
2022-08-23T12:34:19.406Z,14.19
2022-08-23T12:37:33.376Z,14.08
2022-08-23T12:40:42.861Z,14.24
2022-08-23T12:44:03.214Z,13.91
2022-08-23T12:47:21.910Z,13.77
2022-08-23T12:50:40.579Z,14.01
2022-08-23T12:53:46.511Z,14.12
2022-08-23T12:56:55.171Z,14.15
2022-08-23T13:00:25.871Z,14.13
2022-08-23T13:03:39.862Z,14.11
2022-08-23T13:06:51.858Z,14.17
2022-08-23T13:09:57.586Z,14.11
2022-08-23T13:13:02.610Z,14.10
2022-08-23T13:16:30.080Z,13.98
2022-08-23T13:19:34.912Z,14.00
2022-08-23T13:22:56.138Z,13.97
2022-08-23T13:26:27.033Z,13.89
2022-08-23T13:29:32.447Z,14.00
2022-08-23T13:32:44.390Z,14.04
2022-08-23T13:35:51.915Z,13.97
2022-08-23T13:38:57.212Z,13.87
2022-08-23T13:42:02.087Z,13.94
2022-08-23T13:45:15.026Z,13.72
2022-08-23T13:48:31.842Z,13.18
2022-08-23T13:51:41.062Z,13.80
2022-08-23T13:54:50.743Z,13.85
2022-08-23T13:57:59.739Z,13.36
2022-08-23T14:01:18.649Z,13.77
2022-08-23T14:04:23.563Z,13.37
2022-08-23T14:07:28.125Z,13.42
2022-08-23T14:10:32.641Z,13.53
2022-08-23T14:13:38.239Z,13.37
2022-08-23T14:16:43.266Z,13.45
2022-08-23T14:20:32.281Z,13.29
2022-08-23T14:23:13.491Z,13.30
2022-08-23T14:26:20.851Z,13.16
2022-08-23T14:29:29.551Z,13.06
2022-08-23T14:32:39.511Z,13.24
2022-08-23T14:35:45.324Z,12.90
2022-08-23T14:38:53.695Z,13.24
2022-08-23T14:41:59.240Z,12.77
2022-08-23T14:45:03.959Z,13.14
2022-08-23T14:48:08.702Z,13.01
2022-08-23T14:51:35.708Z,13.09
2022-08-23T14:54:43.058Z,13.18
2022-08-23T14:57:52.641Z,13.22
2022-08-23T15:00:57.562Z,13.20
2022-08-23T15:04:08.249Z,13.30
2022-08-23T15:07:20.168Z,13.23
2022-08-23T15:13:55.494Z,13.37
2022-08-23T15:17:04.076Z,13.41
2022-08-23T15:20:08.744Z,13.46
2022-08-23T15:23:13.289Z,13.43
2022-08-23T15:26:22.959Z,13.31
2022-08-23T15:29:29.031Z,13.42
2022-08-23T15:32:33.761Z,13.15
2022-08-23T15:35:49.863Z,13.32
2022-08-23T15:38:55.295Z,13.49
2022-08-23T15:42:00.144Z,13.48
2022-08-23T15:45:06.048Z,13.47
2022-08-23T15:48:22.953Z,13.27
2022-08-23T15:51:27.616Z,13.24
2022-08-23T15:54:32.588Z,13.35
2022-08-23T15:57:46.856Z,13.14
2022-08-23T16:00:52.020Z,13.26
2022-08-23T16:03:57.053Z,13.24
2022-08-23T16:07:02.049Z,13.13
2022-08-23T16:10:08.105Z,13.10
2022-08-23T16:13:12.988Z,13.02
2022-08-23T16:16:30.310Z,13.11
2022-08-23T16:19:35.001Z,13.11
2022-08-23T16:22:40.639Z,13.15
2022-08-23T16:25:45.263Z,13.00
2022-08-23T16:28:52.720Z,13.15
2022-08-23T16:31:57.308Z,13.10
2022-08-23T16:35:02.003Z,12.97
2022-08-23T16:38:06.874Z,13.08
2022-08-23T16:41:12.281Z,13.11
2022-08-23T16:44:16.913Z,12.99
2022-08-23T16:47:21.792Z,12.92
2022-08-23T16:50:26.578Z,12.91
2022-08-23T16:53:31.373Z,12.83
2022-08-23T16:56:37.546Z,12.84
2022-08-23T16:59:41.979Z,12.86
2022-08-23T17:02:46.585Z,12.69
2022-08-23T17:05:51.309Z,12.72
2022-08-23T17:08:56.040Z,12.64
2022-08-23T17:12:00.624Z,12.53
2022-08-23T17:15:08.140Z,12.50
2022-08-23T17:18:12.912Z,12.33
2022-08-23T17:21:17.549Z,12.40
2022-08-23T17:24:22.135Z,12.41
2022-08-23T17:27:26.973Z,12.35
2022-08-23T17:30:32.028Z,12.26
2022-08-23T17:33:36.454Z,12.23
2022-08-23T17:36:55.693Z,12.14
2022-08-23T17:40:00.515Z,12.13
2022-08-23T17:43:06.372Z,12.22
2022-08-23T17:46:11.208Z,12.15
2022-08-23T17:49:17.404Z,12.18
2022-08-23T17:52:21.974Z,12.25
2022-08-23T17:55:26.671Z,12.23
2022-08-23T17:58:34.256Z,12.15
2022-08-23T18:01:39.360Z,12.18
2022-08-23T18:04:43.920Z,12.13
2022-08-23T18:07:48.414Z,12.21
2022-08-23T18:10:52.815Z,12.25
2022-08-23T18:13:57.533Z,12.14
2022-08-23T18:17:02.819Z,12.27
2022-08-23T18:20:12.875Z,12.35
2022-08-23T18:23:19.235Z,12.25
2022-08-23T18:26:43.131Z,12.28
2022-08-23T18:29:51.619Z,12.09
2022-08-23T18:32:56.696Z,11.84
2022-08-23T18:36:01.338Z,12.01
2022-08-23T18:39:07.616Z,12.13
2022-08-23T18:42:17.923Z,12.07
2022-08-23T18:45:25.278Z,12.09
2022-08-23T18:48:30.391Z,12.00
2022-08-23T18:51:35.423Z,11.91
2022-08-23T18:54:41.112Z,11.83
2022-08-23T18:57:46.475Z,11.62
2022-08-23T19:00:52.105Z,11.85
2022-08-23T19:03:58.770Z,11.81
2022-08-23T19:07:04.427Z,11.72
2022-08-23T19:10:08.891Z,11.42
2022-08-23T19:13:16.183Z,11.23
2022-08-23T19:16:25.167Z,11.49
2022-08-23T19:19:29.878Z,11.58
2022-08-23T19:22:34.735Z,11.34
2022-08-23T19:25:40.372Z,11.41
2022-08-23T19:28:44.544Z,11.25
2022-08-23T19:31:52.429Z,11.22
2022-08-23T19:34:56.978Z,11.22
2022-08-23T19:38:02.029Z,11.24
2022-08-23T19:41:07.454Z,11.20
2022-08-23T19:44:12.814Z,11.19
2022-08-23T19:47:20.664Z,10.97
2022-08-23T19:50:30.350Z,10.76
2022-08-23T19:53:36.037Z,10.97
2022-08-23T19:56:43.400Z,10.23
2022-08-23T19:59:50.008Z,10.45
2022-08-23T20:02:54.961Z,10.66
2022-08-23T20:06:00.063Z,10.46
2022-08-23T20:09:06.565Z,10.35
2022-08-23T20:12:12.454Z,10.76
2022-08-23T20:15:17.444Z,10.64
2022-08-23T20:18:21.772Z,10.64
2022-08-23T20:21:27.212Z,10.68
2022-08-23T20:24:51.006Z,10.44
2022-08-23T20:28:05.846Z,10.74
2022-08-23T20:31:24.534Z,10.60
2022-08-23T20:34:31.331Z,10.65
2022-08-23T20:37:36.484Z,10.80
2022-08-23T20:40:41.036Z,10.50
2022-08-23T20:43:50.213Z,10.43
2022-08-23T20:46:57.661Z,10.52
2022-08-23T20:50:05.914Z,10.50
2022-08-23T20:53:12.825Z,10.23
2022-08-23T20:56:18.524Z,10.33
2022-08-23T20:59:25.135Z,10.30
2022-08-23T21:02:29.936Z,10.36
2022-08-23T21:05:35.112Z,10.44
2022-08-23T21:08:43.395Z,10.68
2022-08-23T21:11:58.833Z,10.90
2022-08-23T21:15:04.502Z,10.99
2022-08-23T21:18:12.226Z,11.25
2022-08-23T21:21:21.391Z,11.96
2022-08-23T21:24:27.193Z,12.29
2022-08-23T21:27:32.215Z,12.19
2022-08-23T21:30:37.383Z,12.22
2022-08-23T21:33:43.744Z,11.72
2022-08-23T21:36:48.747Z,12.03
2022-08-23T21:39:54.111Z,12.29
2022-08-23T21:42:59.093Z,12.75
2022-08-23T21:46:03.416Z,13.25
2022-08-23T21:49:08.744Z,13.57
2022-08-23T21:52:16.663Z,14.59
2022-08-23T21:55:21.613Z,15.05
2022-08-23T21:58:26.469Z,15.06
2022-08-23T22:01:35.088Z,15.46
2022-08-23T22:04:39.925Z,16.68
2022-08-23T22:07:47.517Z,17.61
2022-08-23T22:10:58.163Z,18.46
2022-08-23T22:14:04.123Z,18.55
2022-08-23T22:17:09.071Z,18.26
2022-08-23T22:20:14.512Z,18.63
2022-08-23T22:23:18.974Z,19.77
2022-08-23T22:26:23.891Z,20.60
2022-08-23T22:29:28.713Z,20.08
2022-08-23T22:32:33.571Z,20.91
2022-08-23T22:35:38.453Z,22.57
2022-08-23T22:38:43.815Z,22.90
2022-08-23T22:41:47.957Z,23.55
2022-08-23T22:44:52.668Z,23.82
2022-08-23T22:47:57.144Z,24.70
2022-08-23T22:51:18.204Z,25.68
2022-08-23T22:54:23.047Z,26.11
2022-08-23T22:57:27.385Z,25.43
2022-08-23T23:00:32.034Z,24.55
2022-08-23T23:03:36.833Z,22.95
2022-08-23T23:06:44.461Z,21.81
2022-08-23T23:09:48.813Z,20.39
2022-08-23T23:12:53.473Z,19.92
2022-08-23T23:16:00.860Z,18.96
2022-08-23T23:19:25.178Z,18.47
2022-08-23T23:22:29.782Z,18.60
2022-08-23T23:25:35.304Z,18.58
2022-08-23T23:28:39.610Z,18.50
2022-08-23T23:31:44.815Z,18.42
2022-08-23T23:34:49.367Z,18.06
2022-08-23T23:37:53.943Z,18.12
2022-08-23T23:40:58.824Z,18.02
2022-08-23T23:44:05.281Z,17.96
2022-08-23T23:47:10.023Z,18.17
2022-08-23T23:50:15.655Z,18.34
2022-08-23T23:53:21.106Z,18.07
2022-08-23T23:56:31.878Z,18.27
2022-08-23T23:59:37.247Z,18.58
